Time;durP1;ratioP1;P1;durP2;ratioP2;P2;SDS_P1;SDS_P2;PMS_P1;PMS_P2;Temp;Humidity;BMP_temperature;BMP_pressure;BME280_temperature;BME280_humidity;BME280_pressure;Samples;Min_cycle;Max_cycle;Signal;HPM_P1;HPM_P2
2021/11/24 00:00:27;;;;;;;20.73;13.02;;;0.70;99.90;;;;;;5046525;28;20464;-81
2021/11/24 00:02:55;;;;;;;25.15;15.35;;;0.70;99.90;;;;;;5062059;28;20079;-79
2021/11/24 00:05:21;;;;;;;21.38;13.05;;;0.70;99.90;;;;;;5061627;28;20021;-80
2021/11/24 00:07:47;;;;;;;26.20;16.10;;;0.60;99.90;;;;;;5061800;28;20473;-79
2021/11/24 00:10:15;;;;;;;25.67;16.42;;;0.60;99.90;;;;;;5063084;28;20488;-81
2021/11/24 00:12:41;;;;;;;27.33;16.90;;;0.60;99.90;;;;;;5044429;28;20025;-80
2021/11/24 00:15:08;;;;;;;30.30;17.00;;;0.60;99.90;;;;;;5042664;28;20167;-80
2021/11/24 00:17:34;;;;;;;27.33;17.00;;;0.60;99.90;;;;;;5043923;28;20037;-80
2021/11/24 00:20:00;;;;;;;25.67;16.75;;;0.50;99.90;;;;;;5041882;28;20098;-80
2021/11/24 00:22:26;;;;;;;24.90;16.08;;;0.50;99.90;;;;;;5062785;28;20025;-80
2021/11/24 00:24:52;;;;;;;30.88;17.80;;;0.50;99.90;;;;;;5073686;28;20031;-80
2021/11/24 00:27:17;;;;;;;26.25;15.75;;;0.40;99.90;;;;;;5075131;28;20112;-80
2021/11/24 00:29:43;;;;;;;24.05;15.77;;;0.40;99.90;;;;;;5057336;28;20040;-80
2021/11/24 00:32:09;;;;;;;26.65;16.60;;;0.40;99.90;;;;;;5063655;28;20053;-81
2021/11/24 00:34:35;;;;;;;26.25;16.50;;;0.30;99.90;;;;;;5053739;28;20025;-80
2021/11/24 00:37:01;;;;;;;23.25;15.00;;;0.30;99.90;;;;;;5051071;28;20018;-81
2021/11/24 00:39:27;;;;;;;30.23;17.90;;;0.30;99.90;;;;;;5046802;28;20049;-80
2021/11/24 00:41:53;;;;;;;30.45;17.85;;;0.30;99.90;;;;;;5026063;28;20030;-80
2021/11/24 00:44:19;;;;;;;30.42;17.38;;;0.30;99.90;;;;;;5033075;28;20032;-80
2021/11/24 00:46:45;;;;;;;30.35;19.10;;;0.30;99.90;;;;;;5063430;28;20032;-79
2021/11/24 00:49:11;;;;;;;30.50;17.33;;;0.30;99.90;;;;;;5061209;28;20104;-80
2021/11/24 00:51:37;;;;;;;27.98;17.23;;;0.30;99.90;;;;;;5041158;28;20028;-79
2021/11/24 00:54:04;;;;;;;27.60;17.17;;;0.30;99.90;;;;;;5058233;28;20040;-79
2021/11/24 00:56:30;;;;;;;30.85;17.33;;;0.30;99.90;;;;;;5058335;28;20021;-80
2021/11/24 00:58:56;;;;;;;27.48;16.70;;;0.20;99.90;;;;;;5060330;28;20039;-80
2021/11/24 01:01:22;;;;;;;30.02;17.35;;;0.20;99.90;;;;;;5040366;28;20462;-80
2021/11/24 01:03:48;;;;;;;29.88;17.50;;;0.20;99.90;;;;;;5056907;22;20068;-83
2021/11/24 01:06:14;;;;;;;31.08;16.67;;;0.20;99.90;;;;;;5010965;28;20026;-82
2021/11/24 01:08:39;;;;;;;32.25;19.25;;;0.20;99.90;;;;;;5021568;28;20037;-83
2021/11/24 01:11:05;;;;;;;30.08;17.42;;;0.20;99.90;;;;;;5019943;28;20036;-81
2021/11/24 01:13:32;;;;;;;26.08;17.10;;;0.10;99.90;;;;;;5049287;28;20043;-82
2021/11/24 01:15:57;;;;;;;29.27;16.92;;;0.10;99.90;;;;;;5063715;28;20037;-82
2021/11/24 01:18:23;;;;;;;29.23;18.17;;;0.10;99.90;;;;;;5045108;28;20056;-82
2021/11/24 01:20:50;;;;;;;30.17;17.65;;;0.00;99.90;;;;;;5072779;28;20048;-82
2021/11/24 01:23:18;;;;;;;25.63;15.77;;;0.00;99.90;;;;;;5074902;28;20017;-82
2021/11/24 01:25:44;;;;;;;33.05;19.90;;;0.00;99.90;;;;;;5049842;28;20048;-83
2021/11/24 01:28:09;;;;;;;30.73;19.02;;;0.10;99.90;;;;;;5064992;28;20029;-82
2021/11/24 01:30:36;;;;;;;30.42;18.80;;;0.10;99.90;;;;;;5069214;28;20025;-82
2021/11/24 01:33:02;;;;;;;28.33;17.55;;;0.10;99.90;;;;;;5040705;28;20029;-82
2021/11/24 01:35:29;;;;;;;30.60;17.65;;;0.10;99.90;;;;;;5066945;28;20068;-82
2021/11/24 01:37:54;;;;;;;29.60;17.85;;;0.10;99.90;;;;;;5053610;28;20031;-82
2021/11/24 01:40:20;;;;;;;35.78;20.90;;;0.20;99.90;;;;;;5050240;28;20029;-81
2021/11/24 01:42:46;;;;;;;32.72;20.58;;;0.40;99.90;;;;;;5045791;28;20029;-83
2021/11/24 01:45:16;;;;;;;30.70;18.85;;;0.50;99.90;;;;;;5064472;28;20039;-82
2021/11/24 01:47:42;;;;;;;35.63;20.17;;;0.60;99.90;;;;;;5069730;28;20055;-82
2021/11/24 01:50:08;;;;;;;34.17;18.58;;;0.70;99.90;;;;;;5071322;28;20059;-81
2021/11/24 01:52:34;;;;;;;34.15;18.73;;;0.80;99.90;;;;;;5057548;28;20063;-81
2021/11/24 01:55:01;;;;;;;33.55;19.13;;;0.90;99.90;;;;;;5033244;28;20029;-81
2021/11/24 01:57:28;;;;;;;36.60;18.88;;;0.90;99.90;;;;;;5041003;28;20037;-83
2021/11/24 01:59:56;;;;;;;33.90;18.45;;;0.90;99.90;;;;;;5040235;28;20025;-82
2021/11/24 02:02:23;;;;;;;34.83;19.63;;;0.90;99.90;;;;;;5047756;28;20110;-82
2021/11/24 02:04:49;;;;;;;39.22;19.83;;;0.90;99.90;;;;;;5051417;28;20030;-82
2021/11/24 02:07:15;;;;;;;40.72;21.55;;;1.00;99.90;;;;;;5022245;28;20041;-82
2021/11/24 02:09:42;;;;;;;37.10;20.70;;;1.00;99.90;;;;;;5023507;28;20120;-83
2021/11/24 02:12:11;;;;;;;42.58;21.83;;;0.90;99.90;;;;;;5040441;28;20108;-82
2021/11/24 02:14:37;;;;;;;42.15;21.73;;;0.90;99.90;;;;;;5040836;28;20028;-82
2021/11/24 02:17:05;;;;;;;37.50;20.13;;;0.90;99.90;;;;;;5023488;28;20053;-83
2021/11/24 02:19:33;;;;;;;39.83;20.95;;;0.90;99.90;;;;;;5041544;28;20017;-81
2021/11/24 02:22:00;;;;;;;46.72;22.40;;;1.00;99.90;;;;;;5036232;28;20396;-80
2021/11/24 02:24:33;;;;;;;45.42;23.05;;;1.00;99.90;;;;;;5054398;28;20029;-82
2021/11/24 02:27:01;;;;;;;41.47;21.35;;;1.10;99.90;;;;;;5023613;28;20025;-81
2021/11/24 02:29:28;;;;;;;46.10;23.02;;;1.10;99.90;;;;;;5044055;28;20076;-82
2021/11/24 02:31:59;;;;;;;45.10;21.77;;;1.10;99.90;;;;;;5044422;28;20036;-82
2021/11/24 02:34:26;;;;;;;44.03;22.73;;;1.00;99.90;;;;;;5041155;28;20036;-82
2021/11/24 02:36:52;;;;;;;45.78;23.40;;;1.10;99.90;;;;;;5044452;28;20108;-82
2021/11/24 02:39:18;;;;;;;44.35;22.65;;;1.10;99.90;;;;;;5026168;28;20025;-81
2021/11/24 02:41:44;;;;;;;37.95;22.27;;;1.10;99.90;;;;;;5043335;28;20131;-82
2021/11/24 02:44:24;;;;;;;41.00;22.17;;;1.10;99.90;;;;;;5043957;28;20029;-82
2021/11/24 02:46:52;;;;;;;37.72;21.00;;;1.00;99.90;;;;;;5044140;28;20045;-81
2021/11/24 02:49:18;;;;;;;34.38;19.35;;;1.00;99.90;;;;;;5044383;28;20026;-81
2021/11/24 02:51:45;;;;;;;42.20;21.55;;;1.00;99.90;;;;;;5046348;28;20048;-82
2021/11/24 02:54:11;;;;;;;41.38;22.50;;;1.00;99.90;;;;;;5065942;28;20056;-82
2021/11/24 02:56:39;;;;;;;40.72;20.77;;;1.00;99.90;;;;;;5056214;28;20021;-81
2021/11/24 02:59:06;;;;;;;38.92;20.52;;;0.90;99.90;;;;;;5059548;28;20025;-83
2021/11/24 03:01:32;;;;;;;40.53;21.13;;;0.90;99.90;;;;;;5067764;28;20477;-82
2021/11/24 03:03:58;;;;;;;36.25;19.83;;;0.80;99.90;;;;;;5040338;28;20044;-81
2021/11/24 03:06:24;;;;;;;36.35;20.15;;;0.90;99.90;;;;;;5028286;28;20497;-80
2021/11/24 03:08:50;;;;;;;39.17;19.70;;;0.90;99.90;;;;;;5044399;28;20022;-82
2021/11/24 03:11:16;;;;;;;41.00;20.60;;;1.00;99.90;;;;;;5029111;28;20503;-81
2021/11/24 03:13:41;;;;;;;36.85;19.55;;;1.00;99.90;;;;;;5055954;28;20093;-82
2021/11/24 03:16:07;;;;;;;40.08;20.75;;;1.10;99.90;;;;;;5045607;28;20061;-82
2021/11/24 03:18:33;;;;;;;38.58;20.65;;;1.10;99.90;;;;;;5045602;28;20021;-82
2021/11/24 03:20:58;;;;;;;41.95;21.10;;;1.00;99.90;;;;;;5045139;28;20025;-84
2021/11/24 03:23:24;;;;;;;36.88;19.58;;;1.10;99.90;;;;;;5037504;28;20025;-82
2021/11/24 03:25:50;;;;;;;37.30;19.95;;;1.20;99.90;;;;;;5044820;28;20029;-82
2021/11/24 03:28:16;;;;;;;34.47;18.60;;;1.20;99.90;;;;;;5044237;28;20425;-82
2021/11/24 03:30:42;;;;;;;35.58;18.70;;;1.30;99.90;;;;;;5026378;28;20029;-83
2021/11/24 03:33:07;;;;;;;31.75;17.08;;;1.30;99.90;;;;;;5047065;28;20064;-83
2021/11/24 03:35:35;;;;;;;32.63;16.67;;;1.30;99.90;;;;;;5064422;28;20508;-82
2021/11/24 03:38:03;;;;;;;30.27;17.27;;;1.30;99.90;;;;;;5066519;28;20017;-82
2021/11/24 03:40:34;;;;;;;33.28;16.42;;;1.30;99.90;;;;;;5067647;28;20041;-82
2021/11/24 03:43:00;;;;;;;33.85;18.17;;;1.30;99.90;;;;;;5045883;28;20033;-82
2021/11/24 03:45:37;;;;;;;35.05;17.92;;;1.40;99.90;;;;;;5062691;28;20101;-82
2021/11/24 03:48:05;;;;;;;33.58;16.73;;;1.30;99.90;;;;;;5063856;28;20073;-83
2021/11/24 03:50:31;;;;;;;35.10;19.40;;;1.30;99.90;;;;;;5063492;28;20032;-84
2021/11/24 03:52:57;;;;;;;34.78;18.55;;;1.30;99.90;;;;;;5062320;28;20025;-82
2021/11/24 03:55:23;;;;;;;37.33;18.83;;;1.30;99.90;;;;;;5062212;28;20485;-81
2021/11/24 03:57:49;;;;;;;30.23;16.92;;;1.40;99.90;;;;;;5045964;28;20025;-82
2021/11/24 04:00:20;;;;;;;32.20;17.17;;;1.40;99.90;;;;;;5045650;28;20027;-81
2021/11/24 04:02:46;;;;;;;29.98;16.88;;;1.50;99.90;;;;;;5058680;28;20020;-81
2021/11/24 04:05:12;;;;;;;28.65;15.00;;;1.60;99.90;;;;;;5051136;28;20079;-82
2021/11/24 04:07:38;;;;;;;27.40;14.52;;;1.50;99.90;;;;;;5043720;28;20037;-81
2021/11/24 04:10:06;;;;;;;27.98;15.32;;;1.60;99.90;;;;;;5025276;28;20022;-83
2021/11/24 04:12:32;;;;;;;30.10;16.58;;;1.50;99.90;;;;;;5024326;28;20032;-82
2021/11/24 04:14:58;;;;;;;29.90;17.00;;;1.50;99.90;;;;;;5043082;28;20031;-81
2021/11/24 04:17:24;;;;;;;31.63;15.48;;;1.50;99.90;;;;;;5024943;28;20112;-81
2021/11/24 04:19:50;;;;;;;33.47;17.15;;;1.40;99.90;;;;;;5025071;28;20021;-82
2021/11/24 04:22:16;;;;;;;29.40;16.40;;;1.40;99.90;;;;;;5025178;28;20113;-82
2021/11/24 04:24:42;;;;;;;28.80;15.85;;;1.40;99.90;;;;;;5043041;28;20032;-82
2021/11/24 04:27:08;;;;;;;32.97;18.40;;;1.40;99.90;;;;;;5045150;28;20033;-82
2021/11/24 04:29:34;;;;;;;34.25;18.67;;;1.30;99.90;;;;;;5062388;28;20025;-82
2021/11/24 04:32:01;;;;;;;33.92;17.42;;;1.20;99.90;;;;;;5062389;28;20631;-80
2021/11/24 04:34:27;;;;;;;35.53;18.55;;;1.30;99.90;;;;;;5054409;28;20482;-83
2021/11/24 04:36:53;;;;;;;32.50;17.25;;;1.20;99.90;;;;;;5062950;28;20112;-82
2021/11/24 04:39:19;;;;;;;31.63;16.50;;;1.30;99.90;;;;;;5064037;28;20025;-83
2021/11/24 04:41:45;;;;;;;27.80;15.98;;;1.40;99.90;;;;;;5044882;28;20146;-83
2021/11/24 04:44:11;;;;;;;31.08;15.70;;;1.40;99.90;;;;;;5062801;28;20105;-82
2021/11/24 04:46:37;;;;;;;29.80;16.35;;;1.50;99.90;;;;;;5061608;28;20032;-81
2021/11/24 04:49:02;;;;;;;35.47;18.90;;;1.50;99.90;;;;;;5062045;28;20028;-83
2021/11/24 04:51:28;;;;;;;37.08;19.23;;;1.40;99.90;;;;;;5062218;28;20052;-82
2021/11/24 04:53:54;;;;;;;32.30;17.80;;;1.30;99.90;;;;;;5061719;28;20040;-81
2021/11/24 04:56:20;;;;;;;36.35;18.98;;;1.30;99.90;;;;;;5057492;28;20059;-81
2021/11/24 05:01:15;;;;;;;38.15;18.33;;;1.10;99.90;;;;;;5055785;28;20036;-82
2021/11/24 05:03:40;;;;;;;41.67;21.25;;;1.00;99.90;;;;;;5067212;28;20033;-83
2021/11/24 05:06:06;;;;;;;38.05;19.95;;;1.00;99.90;;;;;;5025256;28;20045;-82
2021/11/24 05:08:34;;;;;;;37.15;18.98;;;1.00;99.90;;;;;;5062159;28;20052;-83
2021/11/24 05:11:01;;;;;;;38.72;19.38;;;1.00;99.90;;;;;;5062360;28;20021;-82
2021/11/24 05:13:26;;;;;;;39.67;20.60;;;1.00;99.90;;;;;;5062553;28;20055;-82
2021/11/24 05:15:56;;;;;;;40.95;20.13;;;1.00;99.90;;;;;;5062030;28;20041;-82
2021/11/24 05:18:28;;;;;;;39.60;20.73;;;0.90;99.90;;;;;;5044626;28;20079;-83
2021/11/24 05:21:01;;;;;;;44.58;22.77;;;0.90;99.90;;;;;;5044638;28;20021;-82
2021/11/24 05:23:30;;;;;;;39.05;19.38;;;0.80;99.90;;;;;;5062602;28;20025;-82
2021/11/24 05:25:56;;;;;;;39.78;21.85;;;0.80;99.90;;;;;;5063576;28;20025;-81
2021/11/24 05:28:24;;;;;;;36.78;19.55;;;0.70;99.90;;;;;;5041059;28;20064;-81
2021/11/24 05:30:50;;;;;;;41.75;20.92;;;0.70;99.90;;;;;;5052133;28;20097;-82
2021/11/24 05:33:15;;;;;;;34.40;18.08;;;0.70;99.90;;;;;;5057178;28;20051;-82
2021/11/24 05:35:41;;;;;;;35.53;18.80;;;0.60;99.90;;;;;;5048329;28;20034;-83
2021/11/24 05:38:07;;;;;;;36.35;18.40;;;0.60;99.90;;;;;;5051321;28;20040;-84
2021/11/24 05:40:33;;;;;;;35.75;19.80;;;0.70;99.90;;;;;;5035200;28;20211;-81
2021/11/24 05:42:58;;;;;;;37.08;18.45;;;0.70;99.90;;;;;;5044364;28;20029;-83
2021/11/24 05:45:38;;;;;;;35.13;18.08;;;0.60;99.90;;;;;;5044132;28;20453;-83
2021/11/24 05:48:08;;;;;;;32.03;16.73;;;0.60;99.90;;;;;;5048740;28;20032;-81
2021/11/24 05:50:34;;;;;;;31.42;16.25;;;0.60;99.90;;;;;;5052774;28;20101;-82
2021/11/24 05:53:00;;;;;;;31.83;16.45;;;0.70;99.90;;;;;;5026811;28;20060;-81
2021/11/24 05:55:28;;;;;;;31.35;15.60;;;0.80;99.90;;;;;;5042541;28;20478;-83
2021/11/24 05:57:53;;;;;;;32.60;16.63;;;0.80;99.90;;;;;;5043374;28;20029;-83
2021/11/24 06:00:19;;;;;;;31.65;15.98;;;0.80;99.90;;;;;;5044910;28;20017;-81
2021/11/24 06:02:45;;;;;;;30.17;15.85;;;0.70;99.90;;;;;;5030253;28;20046;-82
2021/11/24 06:05:12;;;;;;;25.42;13.60;;;0.60;99.90;;;;;;5057662;28;20108;-83
2021/11/24 06:07:38;;;;;;;30.77;16.40;;;0.60;99.90;;;;;;5066625;28;20085;-84
2021/11/24 06:10:05;;;;;;;28.40;16.40;;;0.60;99.90;;;;;;5066424;28;20017;-83
2021/11/24 06:12:31;;;;;;;30.65;15.65;;;0.50;99.90;;;;;;5066482;28;20079;-82
2021/11/24 06:14:56;;;;;;;30.55;15.02;;;0.50;99.90;;;;;;5048156;28;20033;-82
2021/11/24 06:17:22;;;;;;;26.17;13.80;;;0.50;99.90;;;;;;5048903;28;20037;-82
2021/11/24 06:19:48;;;;;;;23.95;13.05;;;0.60;99.90;;;;;;5034306;28;20022;-84
2021/11/24 06:22:14;;;;;;;26.88;15.30;;;0.60;99.90;;;;;;5045961;28;20021;-82
2021/11/24 06:24:40;;;;;;;24.60;13.15;;;0.60;99.90;;;;;;5046689;28;20037;-81
2021/11/24 06:27:05;;;;;;;25.17;14.15;;;0.60;99.90;;;;;;5045884;28;20029;-82
2021/11/24 06:29:31;;;;;;;24.50;13.60;;;0.60;99.90;;;;;;5033149;28;20083;-82
2021/11/24 06:31:57;;;;;;;23.00;12.88;;;0.70;99.90;;;;;;5064149;28;20025;-82
2021/11/24 06:34:23;;;;;;;27.55;14.63;;;0.70;99.90;;;;;;5038279;28;20029;-81
2021/11/24 06:36:48;;;;;;;26.17;14.70;;;0.70;99.90;;;;;;5063034;28;20055;-81
2021/11/24 06:39:14;;;;;;;25.20;14.65;;;0.60;99.90;;;;;;5065388;28;20039;-81
2021/11/24 06:41:40;;;;;;;24.77;14.27;;;0.60;99.90;;;;;;5045972;28;20080;-82
2021/11/24 06:44:06;;;;;;;24.42;14.23;;;0.50;99.90;;;;;;5049000;28;20481;-82
2021/11/24 06:46:33;;;;;;;25.83;13.68;;;0.50;99.90;;;;;;5028922;28;20037;-82
2021/11/24 06:48:59;;;;;;;24.58;12.43;;;0.60;99.90;;;;;;5045462;28;20029;-82
2021/11/24 06:51:25;;;;;;;22.42;13.00;;;0.70;99.90;;;;;;5029055;28;20064;-82
2021/11/24 06:53:51;;;;;;;22.98;13.48;;;0.80;99.90;;;;;;5044626;28;20025;-83
2021/11/24 06:56:17;;;;;;;23.33;14.13;;;0.90;99.90;;;;;;5027701;28;20088;-83
2021/11/24 06:58:42;;;;;;;21.33;12.57;;;0.80;99.90;;;;;;5050012;28;20032;-82
2021/11/24 07:01:08;;;;;;;23.38;13.38;;;0.90;99.90;;;;;;5066379;28;20027;-81
2021/11/24 07:03:34;;;;;;;23.02;14.43;;;1.00;99.90;;;;;;5064536;23;20138;-81
2021/11/24 07:06:00;;;;;;;28.17;14.48;;;0.90;99.90;;;;;;5041205;28;20083;-82
2021/11/24 07:08:25;;;;;;;26.55;13.40;;;1.00;99.90;;;;;;5027631;28;20029;-80
2021/11/24 07:10:51;;;;;;;20.15;11.13;;;1.00;99.90;;;;;;5044016;28;20022;-81
2021/11/24 07:13:17;;;;;;;23.30;13.52;;;1.10;99.90;;;;;;5043852;28;20450;-81
2021/11/24 07:15:43;;;;;;;26.63;14.75;;;1.10;99.90;;;;;;5028571;28;21985;-81
2021/11/24 07:18:16;;;;;;;22.33;12.82;;;1.10;99.90;;;;;;5046332;28;20022;-80
2021/11/24 07:20:43;;;;;;;23.15;13.15;;;1.10;99.90;;;;;;5044660;28;20148;-80
2021/11/24 07:23:08;;;;;;;24.30;13.93;;;1.10;99.90;;;;;;5029413;28;20124;-82
2021/11/24 07:25:35;;;;;;;25.23;13.00;;;1.10;99.90;;;;;;5046440;28;20062;-80
2021/11/24 07:28:01;;;;;;;21.48;12.38;;;1.00;99.90;;;;;;5027496;28;20450;-82
2021/11/24 07:30:27;;;;;;;23.65;12.93;;;1.00;99.90;;;;;;5042975;28;20441;-79
2021/11/24 07:32:54;;;;;;;22.35;11.88;;;1.10;99.90;;;;;;5036549;28;20024;-79
2021/11/24 07:35:21;;;;;;;23.13;12.35;;;1.10;99.90;;;;;;5054840;28;20044;-79
2021/11/24 07:37:47;;;;;;;25.95;12.93;;;1.20;99.90;;;;;;5051501;28;20115;-81
2021/11/24 07:40:13;;;;;;;23.83;13.07;;;1.20;99.90;;;;;;5068597;28;20032;-80
2021/11/24 07:42:40;;;;;;;26.35;14.57;;;1.30;99.90;;;;;;5057542;28;20014;-79
2021/11/24 07:45:07;;;;;;;22.65;12.77;;;1.20;99.90;;;;;;5063036;28;20034;-80
2021/11/24 07:47:33;;;;;;;28.30;15.13;;;1.20;99.90;;;;;;5050727;28;20104;-78
2021/11/24 07:50:00;;;;;;;25.20;14.40;;;1.20;99.90;;;;;;5047234;28;20037;-78
2021/11/24 07:52:26;;;;;;;25.65;14.93;;;1.20;99.90;;;;;;5034239;28;20052;-80
2021/11/24 07:54:51;;;;;;;27.60;14.65;;;1.10;99.90;;;;;;5055241;28;20025;-80
2021/11/24 07:57:19;;;;;;;25.58;14.35;;;1.10;99.90;;;;;;5051055;28;20040;-81
2021/11/24 07:59:45;;;;;;;28.33;15.68;;;1.10;99.90;;;;;;5051942;28;20057;-80
2021/11/24 08:02:11;;;;;;;24.02;13.80;;;1.20;99.90;;;;;;5054419;28;20031;-80
2021/11/24 08:04:37;;;;;;;28.77;13.65;;;1.10;99.90;;;;;;5071032;28;20029;-80
2021/11/24 08:07:03;;;;;;;27.25;14.40;;;1.10;99.90;;;;;;5065987;28;20052;-81
2021/11/24 08:09:31;;;;;;;23.63;13.88;;;1.10;99.90;;;;;;5030895;28;20052;-80
2021/11/24 08:11:58;;;;;;;24.10;13.63;;;1.20;99.90;;;;;;5046105;28;20485;-81
2021/11/24 08:14:25;;;;;;;21.67;11.77;;;1.20;99.90;;;;;;5048598;28;20034;-80
2021/11/24 08:16:51;;;;;;;21.15;11.80;;;1.20;99.90;;;;;;5046590;28;20032;-79
2021/11/24 08:19:17;;;;;;;15.30;10.20;;;1.30;99.90;;;;;;5043738;28;20017;-80
2021/11/24 08:21:44;;;;;;;19.65;10.40;;;1.50;99.90;;;;;;5026957;28;20045;-80
2021/11/24 08:24:10;;;;;;;16.52;10.45;;;1.60;99.90;;;;;;5028967;28;20025;-80
2021/11/24 08:26:36;;;;;;;19.17;10.07;;;1.80;99.90;;;;;;5043113;28;20033;-79
2021/11/24 08:29:03;;;;;;;20.42;10.23;;;1.70;99.90;;;;;;5042438;28;20030;-79
2021/11/24 08:31:29;;;;;;;17.45;9.70;;;1.70;99.90;;;;;;5042852;28;20022;-80
2021/11/24 08:33:55;;;;;;;18.17;10.32;;;1.60;99.90;;;;;;5025604;28;20060;-78
2021/11/24 08:36:21;;;;;;;17.30;9.75;;;1.60;99.90;;;;;;5055912;28;20025;-78
2021/11/24 08:38:47;;;;;;;20.17;11.00;;;1.70;99.90;;;;;;5052934;28;20041;-78
2021/11/24 08:41:15;;;;;;;17.10;9.57;;;1.80;99.90;;;;;;5050815;28;20052;-78
2021/11/24 08:43:41;;;;;;;14.75;8.65;;;1.90;99.90;;;;;;5063982;28;20140;-79
2021/11/24 08:46:08;;;;;;;15.50;9.07;;;1.70;99.90;;;;;;5047317;28;20037;-80
2021/11/24 08:48:34;;;;;;;14.90;8.38;;;1.70;99.90;;;;;;5046952;28;20036;-79
2021/11/24 08:51:00;;;;;;;15.18;8.95;;;1.80;99.90;;;;;;5062762;28;20080;-79
2021/11/24 08:53:27;;;;;;;17.25;9.50;;;1.80;99.90;;;;;;5055713;28;20060;-79
2021/11/24 08:55:53;;;;;;;15.05;9.07;;;1.80;99.90;;;;;;5048155;28;20018;-79
2021/11/24 08:58:19;;;;;;;15.23;10.00;;;1.80;99.90;;;;;;5030472;28;20028;-79
2021/11/24 09:00:46;;;;;;;15.65;9.25;;;1.80;99.90;;;;;;5051607;28;20045;-80
2021/11/24 09:03:12;;;;;;;15.90;10.07;;;1.70;99.90;;;;;;5047413;28;20017;-79
2021/11/24 09:05:39;;;;;;;16.90;9.02;;;1.70;99.90;;;;;;5049358;28;20017;-79
2021/11/24 09:08:05;;;;;;;15.68;9.23;;;1.70;99.90;;;;;;5041182;28;20095;-78
2021/11/24 09:10:31;;;;;;;15.48;9.95;;;1.70;99.90;;;;;;5022487;28;20481;-78
2021/11/24 09:12:58;;;;;;;16.33;9.27;;;1.80;99.90;;;;;;5042960;28;20081;-78
2021/11/24 09:15:24;;;;;;;16.88;9.38;;;1.90;99.90;;;;;;5029569;28;20049;-79
2021/11/24 09:17:50;;;;;;;16.05;10.00;;;1.90;99.90;;;;;;5047191;28;20032;-80
2021/11/24 09:20:16;;;;;;;15.70;9.38;;;1.90;99.90;;;;;;5027999;28;20032;-79
2021/11/24 09:22:45;;;;;;;14.88;9.30;;;1.80;99.90;;;;;;5026664;28;20041;-78
2021/11/24 09:25:14;;;;;;;19.40;9.95;;;1.80;99.90;;;;;;5051306;28;20023;-78
2021/11/24 09:27:48;;;;;;;15.75;10.07;;;1.70;99.90;;;;;;5053077;28;20029;-78
2021/11/24 09:30:16;;;;;;;13.45;9.02;;;1.60;99.90;;;;;;5024475;28;20033;-78
2021/11/24 09:32:43;;;;;;;17.80;9.23;;;1.60;99.90;;;;;;5046992;28;20025;-77
2021/11/24 09:35:09;;;;;;;15.20;9.18;;;1.60;99.90;;;;;;5058940;28;20032;-79
2021/11/24 09:37:36;;;;;;;14.32;8.80;;;1.60;99.90;;;;;;5035728;28;20057;-78
2021/11/24 09:40:03;;;;;;;15.85;8.98;;;1.60;99.90;;;;;;5066820;28;20017;-79
2021/11/24 09:42:29;;;;;;;16.80;9.93;;;1.60;99.90;;;;;;5066378;28;20533;-78
2021/11/24 09:44:57;;;;;;;14.98;9.10;;;1.70;99.90;;;;;;5044212;28;20108;-79
2021/11/24 09:47:26;;;;;;;15.18;8.75;;;1.70;99.90;;;;;;5050209;28;20377;-78
2021/11/24 09:49:59;;;;;;;13.07;8.73;;;1.60;99.90;;;;;;5033733;28;20022;-79
2021/11/24 09:52:26;;;;;;;15.27;8.82;;;1.60;99.90;;;;;;5047379;28;20047;-78
2021/11/24 09:54:53;;;;;;;13.73;8.43;;;1.50;99.90;;;;;;5041397;28;20044;-77
2021/11/24 09:57:25;;;;;;;13.30;8.10;;;1.50;99.90;;;;;;5030824;28;20116;-79
2021/11/24 09:59:52;;;;;;;12.63;7.97;;;1.40;99.90;;;;;;5048508;28;20017;-78
2021/11/24 10:02:19;;;;;;;14.05;8.13;;;1.40;99.90;;;;;;5049856;28;20049;-78
2021/11/24 10:04:46;;;;;;;13.40;7.97;;;1.40;99.90;;;;;;5031468;28;20033;-80
2021/11/24 10:07:15;;;;;;;14.45;8.40;;;1.50;99.90;;;;;;5047296;28;20064;-78
2021/11/24 10:09:42;;;;;;;14.52;8.88;;;1.40;99.90;;;;;;5046307;28;20060;-78
2021/11/24 10:12:09;;;;;;;12.77;7.60;;;1.50;99.90;;;;;;5046971;28;20060;-78
2021/11/24 10:14:36;;;;;;;14.10;8.65;;;1.50;99.90;;;;;;5030267;28;20030;-79
2021/11/24 10:17:20;;;;;;;11.77;7.38;;;1.50;99.90;;;;;;5031266;28;20025;-80
2021/11/24 10:20:10;;;;;;;12.30;7.50;;;1.50;99.90;;;;;;5048744;28;20029;-78
2021/11/24 10:22:38;;;;;;;13.07;8.13;;;1.50;99.90;;;;;;5027375;28;20032;-79
2021/11/24 10:25:08;;;;;;;13.05;8.10;;;1.40;99.90;;;;;;5026550;28;20056;-78
2021/11/24 10:27:44;;;;;;;14.35;7.63;;;1.30;99.90;;;;;;5036785;28;20048;-79
2021/11/24 10:30:20;;;;;;;13.02;8.10;;;1.30;99.90;;;;;;5042428;28;20037;-79
2021/11/24 10:32:47;;;;;;;11.10;7.43;;;1.20;99.90;;;;;;5047851;28;20041;-78
2021/11/24 10:35:13;;;;;;;11.85;7.35;;;1.20;99.90;;;;;;5072708;28;20042;-80
2021/11/24 10:37:39;;;;;;;14.05;8.18;;;1.20;99.90;;;;;;5061937;28;20419;-79
2021/11/24 10:40:08;;;;;;;10.23;6.53;;;1.20;99.90;;;;;;5051741;28;20093;-80
2021/11/24 10:42:43;;;;;;;11.93;6.75;;;1.30;99.90;;;;;;5054052;28;20029;-77
2021/11/24 10:45:20;;;;;;;12.05;7.47;;;1.40;99.90;;;;;;5066836;28;20100;-79
2021/11/24 10:47:49;;;;;;;10.95;7.13;;;1.50;99.90;;;;;;5076870;28;20051;-78
2021/11/24 10:50:21;;;;;;;11.73;7.20;;;1.50;99.90;;;;;;5062766;28;20029;-76
2021/11/24 10:52:47;;;;;;;13.07;8.10;;;1.50;99.90;;;;;;5029198;28;20489;-78
2021/11/24 10:55:26;;;;;;;9.77;6.82;;;1.40;99.90;;;;;;5024192;28;20120;-78
2021/11/24 10:58:07;;;;;;;11.60;7.45;;;1.40;99.90;;;;;;5031987;28;20417;-79
2021/11/24 11:00:43;;;;;;;12.82;7.95;;;1.50;99.90;;;;;;5031233;28;20029;-78
2021/11/24 11:03:10;;;;;;;11.95;6.75;;;1.40;99.90;;;;;;5047321;28;20025;-79
2021/11/24 11:05:36;;;;;;;12.93;6.50;;;1.40;99.90;;;;;;5058159;28;20036;-77
2021/11/24 11:08:06;;;;;;;12.80;6.53;;;1.40;99.90;;;;;;5079842;28;20066;-78
2021/11/24 11:10:32;;;;;;;10.68;6.50;;;1.50;99.90;;;;;;5043969;28;20043;-79
2021/11/24 11:13:07;;;;;;;10.50;6.97;;;1.50;99.90;;;;;;5044924;28;20055;-78
2021/11/24 11:15:38;;;;;;;20.70;7.45;;;1.50;99.90;;;;;;5085854;28;20025;-79
2021/11/24 11:18:16;;;;;;;10.95;6.80;;;1.40;99.90;;;;;;5074813;28;20068;-79
2021/11/24 11:20:56;;;;;;;12.30;7.68;;;1.50;99.90;;;;;;5064781;28;20021;-77
2021/11/24 11:23:30;;;;;;;11.63;7.30;;;1.50;99.90;;;;;;5046172;28;20067;-78
2021/11/24 11:26:01;;;;;;;11.18;6.35;;;1.60;99.90;;;;;;5049493;28;20025;-78
2021/11/24 11:28:30;;;;;;;11.65;6.80;;;1.50;99.90;;;;;;5064646;28;20453;-79
2021/11/24 11:30:58;;;;;;;11.02;6.78;;;1.40;99.90;;;;;;5083616;28;20017;-79
2021/11/24 11:33:33;;;;;;;11.20;6.95;;;1.40;99.90;;;;;;5082035;28;20029;-78
2021/11/24 11:36:06;;;;;;;10.85;6.85;;;1.30;99.90;;;;;;5027945;28;20029;-78
2021/11/24 11:38:34;;;;;;;13.13;7.68;;;1.40;99.90;;;;;;5048030;28;20030;-79
2021/11/24 11:41:01;;;;;;;11.43;6.97;;;1.40;99.90;;;;;;5034344;28;20084;-79
2021/11/24 11:43:27;;;;;;;10.90;7.00;;;1.40;99.90;;;;;;5067374;28;20026;-79
2021/11/24 11:45:53;;;;;;;11.23;7.20;;;1.40;99.90;;;;;;5028058;28;20097;-79
2021/11/24 11:48:31;;;;;;;10.38;6.28;;;1.40;99.90;;;;;;5025368;28;20065;-78
2021/11/24 11:51:02;;;;;;;11.93;6.72;;;1.40;99.90;;;;;;5027073;28;20036;-79
2021/11/24 11:53:34;;;;;;;10.48;6.97;;;1.40;99.90;;;;;;5045030;28;20032;-78
2021/11/24 11:56:08;;;;;;;12.73;7.78;;;1.60;99.90;;;;;;5062087;28;20385;-79
2021/11/24 11:58:34;;;;;;;11.90;7.25;;;1.80;99.90;;;;;;5040333;28;20479;-78
2021/11/24 12:01:23;;;;;;;12.07;7.05;;;1.80;99.90;;;;;;5057887;28;20044;-78
2021/11/24 12:03:52;;;;;;;11.80;6.82;;;1.80;99.90;;;;;;5042307;28;20044;-79
2021/11/24 12:06:20;;;;;;;10.65;6.57;;;1.90;99.90;;;;;;5044596;28;20382;-78
2021/11/24 12:09:10;;;;;;;11.30;6.38;;;1.90;99.90;;;;;;5036301;28;20025;-78
2021/11/24 12:12:01;;;;;;;10.65;6.25;;;2.10;99.90;;;;;;5036165;28;20049;-78
2021/11/24 12:14:45;;;;;;;13.55;7.47;;;2.10;99.90;;;;;;5040866;28;20515;-79
2021/11/24 12:17:40;;;;;;;12.77;7.68;;;2.00;99.90;;;;;;5056704;28;20481;-78
2021/11/24 12:20:18;;;;;;;13.25;7.78;;;1.80;99.90;;;;;;5039120;28;20024;-78
2021/11/24 12:22:45;;;;;;;12.57;7.22;;;1.80;99.90;;;;;;5038367;28;20074;-77
2021/11/24 12:25:20;;;;;;;12.75;7.45;;;1.90;99.90;;;;;;5038157;28;20032;-77
2021/11/24 12:27:57;;;;;;;13.65;8.27;;;2.00;99.90;;;;;;5039550;28;20032;-77
2021/11/24 12:33:16;;;;;;;14.95;8.20;;;1.80;99.90;;;;;;5062398;28;20048;-78
2021/11/24 12:35:48;;;;;;;12.90;7.50;;;1.70;99.90;;;;;;5038404;28;20022;-78
2021/11/24 12:38:16;;;;;;;12.48;7.65;;;1.60;99.90;;;;;;5042159;28;20024;-77
2021/11/24 12:40:44;;;;;;;11.75;6.72;;;1.70;99.90;;;;;;5051970;28;20029;-77
2021/11/24 12:43:16;;;;;;;12.50;7.10;;;1.70;99.90;;;;;;5055831;28;20085;-77
2021/11/24 12:46:02;;;;;;;10.33;6.70;;;1.80;99.90;;;;;;5024221;28;20049;-77
2021/11/24 12:48:50;;;;;;;12.77;6.88;;;1.90;99.90;;;;;;5039523;28;20021;-78